長春龍嘉国際空港の過去48時間の天気

長春龍嘉国際空港 (Changchun)

現在時刻: 5/26 09:35 CST (5/26 01:35 UTC) 以下の時間は現地時間です。

過去48時間のMETAR気象情報
時間 風向 風速(m/s) 視程 気温(℃) 湿度(%) 気圧(hPa) 天気現象
26 09:00 不定 1 10km以上 12 88 999 弱い雨
26 08:00 不定 1 6000m 11 87 1000 弱い雨
26 07:00 不定 1 7000m 11 87 1000 弱い雨
26 06:00 1 5000m 10 94 1000 もや
26 05:00 2 4000m 10 94 1000 もや
26 04:00 不定 1 3000m 10 87 1000 もや
26 03:00 不定 1 4000m 10 87 1001 もや
26 02:00 静穏 0 10km以上 10 87 1001
26 01:00 1 8000m 10 87 1002
26 00:00 不定 1 2800m 10 87 1003 もや
25 23:00 不定 1 6000m 10 87 1003
25 22:00 不定 1 10km以上 11 87 1004
25 21:00 静穏 0 10km以上 10 87 1004
25 20:00 不定 1 10km以上 11 82 1004
25 19:00 不定 1 10km以上 11 82 1004 弱い雨
25 18:00 東南東 2 10km以上 12 77 1005
25 17:00 2 10km以上 12 77 1005
25 16:00 北北西 2 10km以上 12 77 1005
25 15:00 北北西 2 10km以上 12 77 1006
25 14:00 不定 2 10km以上 12 82 1007 弱い雨
25 13:00 北北西 2 10km以上 12 82 1007 弱い雨
25 12:00 北北西 2 10km以上 11 87 1008 弱い雨
25 11:00 2 10km以上 12 88 1008 弱い雨
25 10:00 北北西 2 6000m 11 94 1008 弱い雨
25 09:00 不定 1 6000m 11 87 1008 弱い雨
25 08:00 西北西 2 6000m 11 87 1009 弱い雨
25 07:00 北北西 2 8000m 11 87 1009 弱い雨
25 06:00 北北西 2 8000m 10 87 1008 弱い雨
25 05:00 3 6000m 10 87 1008 弱い雨
25 04:00 2 6000m 10 87 1008 弱いしゅう雨
25 03:00 2 6000m 10 87 1008 弱いしゅう雨
25 02:00 3 2800m 10 87 1008 弱いしゅう雨 もや
25 01:00 北東 2 3200m 10 87 1009 弱いしゅう雨 もや
25 00:00 北東 4 2800m 10 87 1009 しゅう雨 もや
24 23:00 北北東 3 10km以上 11 76 1010 弱いしゅう雨
24 22:00 3 10km以上 13 62 1010
24 21:00 北東 7 10km以上 14 47 1009
24 20:00 北北東 6 10km以上 15 51 1007
24 19:00 3 10km以上 17 63 1006
24 18:00 東北東 4 10km以上 17 72 1004
24 17:00 東北東 4 10km以上 20 73 1002 弱い雷雨
24 16:00 西 4 10km以上 28 28 1003
24 15:00 西 7 10km以上 29 27 1003
24 14:00 西 6 10km以上 27 34 1004
24 13:00 南西 6 10km以上 28 32 1005
24 12:00 西 4 10km以上 24 41 1006
24 11:00 西南西 6 10km以上 25 44 1006
24 10:00 西 3 10km以上 23 53 1006 弱いしゅう雨
ZYCC 260100Z VRB01MPS 9999 -RA FEW006 OVC023 12/10 Q0999 NOSIG
ZYCC 260000Z VRB01MPS 6000 -RA SCT006 OVC023 11/09 Q1000 NOSIG
ZYCC 252300Z VRB01MPS 7000 -RA SCT004 OVC016 11/09 Q1000 NOSIG
ZYCC 252200Z 09001MPS 5000 BR SCT004 OVC023 10/09 Q1000 NOSIG
ZYCC 252100Z 09002MPS 4000 BR FEW004 OVC030 10/09 Q1000 NOSIG
ZYCC 252000Z VRB01MPS 3000 BR FEW003 OVC030 10/08 Q1000 NOSIG
ZYCC 251900Z VRB01MPS 4000 BR FEW030 10/08 Q1001 NOSIG
ZYCC 251800Z 00000MPS 9999 FEW030 10/08 Q1001 NOSIG
ZYCC 251700Z 35001MPS 8000 FEW030 10/08 Q1002 NOSIG
ZYCC 251600Z VRB01MPS 2800 BR SCT030 10/08 Q1003 BECMG TL1700 3000
ZYCC 251500Z VRB01MPS 6000 SCT030 10/08 Q1003 BECMG TL1630 2000 BR
ZYCC 251400Z VRB01MPS 9999 SCT030 11/09 Q1004 BECMG TL1540 2000 BR
ZYCC 251300Z 00000MPS 9999 SCT030 10/08 Q1004 NOSIG
ZYCC 251200Z VRB01MPS 9999 FEW016 SCT030 11/08 Q1004 NOSIG
ZYCC 251100Z VRB01MPS 9999 -RA FEW016 SCT030 11/08 Q1004 NOSIG
ZYCC 251000Z 11002MPS 9999 FEW016 BKN030 12/08 Q1005 NOSIG
ZYCC 250900Z 08002MPS 9999 FEW016 BKN030 12/08 Q1005 NOSIG
ZYCC 250800Z 34002MPS 300V060 9999 FEW016 BKN026 12/08 Q1005 NOSIG
ZYCC 250700Z 34002MPS 250V030 9999 BKN026 12/08 Q1006 NOSIG
ZYCC 250600Z VRB02MPS 9999 -RA SCT011 BKN020 12/09 Q1007 NOSIG
ZYCC 250500Z 33002MPS 260V070 9999 -RA FEW011 BKN030 12/09 Q1007 NOSIG
ZYCC 250400Z 34002MPS 280V060 9999 -RA FEW009 BKN026 11/09 Q1008 NOSIG
ZYCC 250300Z 36002MPS 300V040 9999 -RA FEW009 BKN030 12/10 Q1008 NOSIG
ZYCC 250200Z 34002MPS 290V030 6000 -RA FEW005 BKN026 11/10 Q1008 NOSIG
ZYCC 250100Z VRB01MPS 6000 -RA FEW005 BKN026 11/09 Q1008 NOSIG
ZYCC 250000Z 30002MPS 270V360 6000 -RA FEW005 BKN026 11/09 Q1009 NOSIG
ZYCC 242300Z 33002MPS 250V050 8000 -RA FEW005 BKN026 11/09 Q1009 NOSIG
ZYCC 242200Z 33002MPS 270V030 8000 -RA FEW005 BKN026 10/08 Q1008 NOSIG
ZYCC 242100Z 36003MPS 320V090 6000 -RA SCT005 BKN026 10/08 Q1008 NOSIG
ZYCC 242000Z 36002MPS 320V060 6000 -SHRA FEW005 FEW033TCU SCT033 10/08 Q1008 NOSIG
ZYCC 241900Z 36002MPS 310V060 6000 -SHRA FEW033TCU SCT033 10/08 Q1008 NOSIG
ZYCC 241800Z 35003MPS 300V070 2800 -SHRA BR FEW033TCU SCT033 10/08 Q1008 BECMG TL1900 3000
ZYCC 241700Z 04002MPS 340V070 3200 -SHRA BR FEW033TCU SCT033 10/08 Q1009 RESHRA BECMG TL1730 2000
ZYCC 241600Z 04004MPS 010V070 2800 SHRA BR FEW033TCU SCT033 10/08 Q1009 BECMG TL1700 3000 -SHRA
ZYCC 241500Z 02003MPS 340V060 9999 -SHRA FEW033TCU SCT033 11/07 Q1010 BECMG TL1550 2000 SHRA FEW020CB BKN030
ZYCC 241400Z 36003MPS 330V030 9999 BKN033 13/06 Q1010 BECMG TL1500 2000 RA
ZYCC 241300Z 04007G12MPS 360V060 9999 BKN033 14/03 Q1009 NOSIG
ZYCC 241200Z 03006MPS 350V060 9999 FEW026CB SCT033 15/05 Q1007 RETS NOSIG
ZYCC 241100Z VRB03MPS 9999 TS SCT026CB SCT033 17/10 Q1006 NOSIG
ZYCC 241000Z 06004MPS 9999 SCT026CB BKN033 17/12 Q1004 RETS NOSIG
ZYCC 240900Z 06004MPS 9999 -TSRA SCT026CB BKN033 20/15 Q1002 BECMG TL1000 -SHRA
ZYCC 240800Z 26004MPS 230V310 9999 FEW026CB BKN033 28/08 Q1003 NOSIG
ZYCC 240700Z 26007MPS 220V300 9999 FEW026TCU SCT033 29/08 Q1003 NOSIG
ZYCC 240600Z 26006MPS 230V310 9999 FEW026TCU SCT033 27/10 Q1004 NOSIG
ZYCC 240500Z 23006MPS 9999 FEW026TCU SCT033 28/10 Q1005 NOSIG
ZYCC 240400Z 26004MPS 230V290 9999 FEW026TCU SCT033 24/10 Q1006 BECMG TL0530 2000 -TSRA FEW020CB BKN030
ZYCC 240300Z 25006MPS 220V280 9999 FEW026TCU SCT033 25/12 Q1006 NOSIG
ZYCC 240200Z 26003MPS 220V290 9999 -SHRA FEW026TCU SCT033 23/13 Q1006 NOSIG